Parks, Arizona
Current Conditions -  °F | °C
As of 10:57 AM on Tuesday 21 Oct 2014 (Local Time) from KFLG Reporting Station
Clear Clear  
Wind Chill: 60°   Ceiling: Unl
Heat Index: 60°   Visibility: 10mi
Dew Point: 39°   Wind: 7mph
Humidity: 46%   Direction: 220°SW
Pressure: 30.18"   Gusts: NA
Location:  35.26°N, 111.95°W
Report Text: KFLG 211757Z 22006KT 10SM CLR 16/04 A3018 RMK AO2 SLP156 T01560039 10161 20006 58004
Loading
Personal Weather Stations






























Interactive Weather Map
Tropical Storm Tracking
New forecast layout! Learn more

10-Day Weather Forecast

Advertisements
Track Severe Weather on mobile